Time;durP1;ratioP1;P1;durP2;ratioP2;P2;SDS_P1;SDS_P2;PMS_P1;PMS_P2;Temp;Humidity;BMP_temperature;BMP_pressure;BME280_temperature;BME280_humidity;BME280_pressure;Samples;Min_cycle;Max_cycle;Signal;HPM_P1;HPM_P2
2023/07/04 00:00:39;;;;;;;13.48;3.72;;;12.50;99.90;;;;;;4964153;28;20453;-56
2023/07/04 00:03:05;;;;;;;11.57;2.90;;;12.50;99.90;;;;;;4963800;28;20453;-57
2023/07/04 00:05:31;;;;;;;13.35;3.00;;;12.50;99.90;;;;;;4963574;28;20043;-53
2023/07/04 00:07:57;;;;;;;15.43;3.22;;;12.50;99.90;;;;;;4964346;28;20468;-59
2023/07/04 00:10:23;;;;;;;13.15;3.03;;;12.60;99.90;;;;;;4962438;28;20449;-58
2023/07/04 00:12:48;;;;;;;13.90;2.75;;;12.50;99.90;;;;;;4963512;28;20186;-58
2023/07/04 00:15:14;;;;;;;11.93;2.67;;;12.50;99.90;;;;;;4963392;28;20121;-52
2023/07/04 00:17:42;;;;;;;14.63;2.42;;;12.40;99.90;;;;;;4964115;28;20046;-57
2023/07/04 00:20:09;;;;;;;13.30;2.75;;;12.50;99.90;;;;;;4963769;28;20055;-55
2023/07/04 00:22:36;;;;;;;13.23;2.75;;;12.40;99.90;;;;;;4962554;28;20098;-55
2023/07/04 00:25:04;;;;;;;13.32;2.67;;;12.40;99.90;;;;;;4963055;28;20238;-54
2023/07/04 00:27:33;;;;;;;9.02;2.30;;;12.40;99.90;;;;;;4962969;28;20477;-57
2023/07/04 00:29:59;;;;;;;6.90;2.17;;;12.60;99.90;;;;;;4963920;28;20497;-58
2023/07/04 00:32:25;;;;;;;10.60;2.13;;;12.40;99.90;;;;;;4963438;28;20082;-57
2023/07/04 00:34:51;;;;;;;8.27;2.42;;;12.40;99.90;;;;;;4962909;28;20047;-57
2023/07/04 00:37:21;;;;;;;10.02;2.40;;;12.40;99.90;;;;;;4963292;28;20053;-58
2023/07/04 00:39:50;;;;;;;9.65;2.70;;;12.40;99.90;;;;;;4963575;28;20035;-55
2023/07/04 00:42:16;;;;;;;10.77;2.40;;;12.30;99.90;;;;;;4961163;28;20127;-53
2023/07/04 00:44:47;;;;;;;9.70;2.22;;;12.30;99.90;;;;;;4963548;28;20175;-55
2023/07/04 00:47:21;;;;;;;12.73;2.90;;;12.40;99.90;;;;;;4962872;28;20475;-59
2023/07/04 00:49:57;;;;;;;13.73;3.10;;;12.60;99.90;;;;;;4962545;28;20047;-54
2023/07/04 00:52:27;;;;;;;12.57;3.03;;;12.50;99.90;;;;;;4961926;28;20085;-53
2023/07/04 00:54:57;;;;;;;13.25;3.50;;;12.50;99.90;;;;;;4962595;28;20047;-53
2023/07/04 00:57:31;;;;;;;12.75;2.85;;;12.20;99.90;;;;;;4963119;28;20482;-58
2023/07/04 00:59:58;;;;;;;11.70;2.90;;;12.30;99.90;;;;;;4963081;28;20068;-55
2023/07/04 01:02:29;;;;;;;15.65;2.75;;;12.10;99.90;;;;;;4962691;28;20055;-55
2023/07/04 01:04:57;;;;;;;9.63;2.63;;;12.10;99.90;;;;;;5018283;23;20094;-58
2023/07/04 01:07:41;;;;;;;7.63;1.88;;;12.10;99.90;;;;;;4957200;28;20070;-55
2023/07/04 01:10:32;;;;;;;9.43;2.17;;;12.10;99.90;;;;;;4963831;28;20047;-59
2023/07/04 01:12:58;;;;;;;9.52;2.33;;;12.10;99.90;;;;;;4964262;28;20072;-56
2023/07/04 01:15:24;;;;;;;7.93;2.10;;;12.00;99.90;;;;;;4964678;28;20101;-58
2023/07/04 01:17:51;;;;;;;10.77;2.50;;;11.90;99.90;;;;;;4964604;28;20062;-59
2023/07/04 01:20:18;;;;;;;8.57;2.35;;;12.10;99.90;;;;;;4964717;28;20045;-58
2023/07/04 01:22:47;;;;;;;13.35;2.10;;;11.90;99.90;;;;;;4964316;28;20050;-58
2023/07/04 01:25:42;;;;;;;8.68;2.00;;;11.90;99.90;;;;;;4965039;28;20050;-58
2023/07/04 01:28:08;;;;;;;7.30;1.90;;;11.90;99.90;;;;;;4958643;28;20074;-58
2023/07/04 01:30:38;;;;;;;7.15;2.10;;;11.90;99.90;;;;;;4965170;28;20097;-59
2023/07/04 01:33:05;;;;;;;11.38;2.88;;;11.80;99.90;;;;;;4965226;28;20109;-54
2023/07/04 01:35:33;;;;;;;9.48;2.67;;;11.80;99.90;;;;;;4965542;28;20082;-56
2023/07/04 01:37:59;;;;;;;12.05;2.60;;;12.10;99.90;;;;;;4965108;28;20061;-56
2023/07/04 01:40:25;;;;;;;9.32;2.47;;;11.70;99.90;;;;;;4965340;28;20042;-57
2023/07/04 01:42:51;;;;;;;10.32;2.35;;;11.70;99.90;;;;;;4964590;28;20106;-57
2023/07/04 01:45:18;;;;;;;8.27;2.65;;;11.70;99.90;;;;;;4965650;28;20433;-56
2023/07/04 01:47:44;;;;;;;12.88;2.65;;;11.60;99.90;;;;;;4963385;28;20042;-58
2023/07/04 01:50:11;;;;;;;9.35;2.30;;;11.60;99.90;;;;;;4964692;28;20094;-58
2023/07/04 01:52:37;;;;;;;7.25;2.72;;;11.50;99.90;;;;;;4965016;28;20073;-54
2023/07/04 01:55:04;;;;;;;7.05;2.17;;;11.50;99.90;;;;;;4963489;28;20051;-53
2023/07/04 01:57:30;;;;;;;11.70;3.13;;;11.50;99.90;;;;;;4951433;28;20553;-58
2023/07/04 01:59:56;;;;;;;9.32;2.50;;;11.50;99.90;;;;;;4945333;28;20051;-59
2023/07/04 02:02:22;;;;;;;9.15;2.40;;;11.50;99.90;;;;;;4945806;28;20039;-58
2023/07/04 02:04:47;;;;;;;9.77;2.70;;;11.50;99.90;;;;;;4945724;28;20059;-56
2023/07/04 02:07:13;;;;;;;9.55;2.67;;;12.10;99.90;;;;;;4945858;28;20062;-58
2023/07/04 02:09:38;;;;;;;11.40;2.40;;;11.50;99.90;;;;;;4945587;28;20047;-56
2023/07/04 02:12:05;;;;;;;11.52;2.95;;;11.60;99.90;;;;;;4944501;28;20051;-57
2023/07/04 02:14:30;;;;;;;14.10;3.58;;;11.60;99.90;;;;;;4945200;28;20090;-58
2023/07/04 02:16:56;;;;;;;14.73;3.53;;;11.70;99.90;;;;;;4945188;28;20040;-57
2023/07/04 02:19:21;;;;;;;19.40;4.00;;;11.70;99.90;;;;;;4945953;28;20051;-57
2023/07/04 02:21:47;;;;;;;9.40;3.53;;;11.80;99.90;;;;;;4945660;28;20054;-55
2023/07/04 02:24:13;;;;;;;12.02;3.80;;;11.80;99.90;;;;;;4945626;28;20083;-54
2023/07/04 02:26:39;;;;;;;10.80;3.55;;;12.00;99.90;;;;;;4943694;28;20093;-53
2023/07/04 02:29:05;;;;;;;12.20;3.70;;;11.90;99.90;;;;;;4945408;28;20048;-56
2023/07/04 02:31:30;;;;;;;12.63;4.10;;;11.80;99.90;;;;;;4944677;29;20163;-55
2023/07/04 02:33:56;;;;;;;8.57;3.47;;;11.90;99.90;;;;;;4944363;28;20043;-55
2023/07/04 02:36:22;;;;;;;11.60;4.05;;;11.90;99.90;;;;;;4945528;28;20567;-55
2023/07/04 02:38:47;;;;;;;13.88;3.72;;;11.90;99.90;;;;;;4944920;28;20043;-54
2023/07/04 02:41:13;;;;;;;13.02;4.43;;;12.30;99.90;;;;;;4944446;28;20051;-54
2023/07/04 02:43:39;;;;;;;11.45;4.78;;;11.90;99.90;;;;;;4944901;28;20094;-56
2023/07/04 02:46:08;;;;;;;13.40;4.93;;;12.00;99.90;;;;;;4944919;28;20051;-57
2023/07/04 02:48:34;;;;;;;15.20;4.88;;;12.00;99.90;;;;;;4945512;28;20043;-58
2023/07/04 02:51:00;;;;;;;10.95;4.68;;;12.00;99.90;;;;;;4944839;28;20474;-59
2023/07/04 02:53:27;;;;;;;12.48;5.20;;;12.00;99.90;;;;;;4944935;28;20091;-58
2023/07/04 02:55:54;;;;;;;13.88;5.18;;;12.00;99.90;;;;;;4943939;28;20048;-55
2023/07/04 02:58:20;;;;;;;12.57;5.50;;;12.30;99.90;;;;;;4944537;28;20106;-59
2023/07/04 03:00:49;;;;;;;11.85;5.25;;;12.00;99.90;;;;;;4944433;28;20043;-58
2023/07/04 03:03:16;;;;;;;16.52;6.00;;;12.00;99.90;;;;;;4945591;28;20051;-54
2023/07/04 03:05:44;;;;;;;13.95;6.25;;;12.00;99.90;;;;;;4946208;28;20085;-56
2023/07/04 03:08:10;;;;;;;19.55;7.03;;;12.00;99.90;;;;;;4949339;28;20055;-57
2023/07/04 03:10:35;;;;;;;16.88;6.38;;;12.40;99.90;;;;;;4948427;28;20042;-56
2023/07/04 03:13:01;;;;;;;14.43;6.40;;;12.10;99.90;;;;;;4948558;28;20091;-56
2023/07/04 03:15:27;;;;;;;15.60;6.65;;;12.20;99.90;;;;;;4947345;28;20062;-58
2023/07/04 03:17:53;;;;;;;17.75;6.88;;;12.20;99.90;;;;;;4947982;28;20161;-52
2023/07/04 03:20:19;;;;;;;16.70;7.05;;;12.20;99.90;;;;;;4962274;28;20109;-57
2023/07/04 03:22:47;;;;;;;19.58;7.10;;;12.20;99.90;;;;;;4965761;28;20153;-58
2023/07/04 03:25:15;;;;;;;15.60;7.60;;;12.30;99.90;;;;;;4966980;28;20121;-57
2023/07/04 03:27:41;;;;;;;14.43;7.18;;;12.30;99.90;;;;;;4967674;28;20133;-58
2023/07/04 03:30:09;;;;;;;17.00;7.20;;;12.30;99.90;;;;;;4966857;28;20121;-57
2023/07/04 03:32:34;;;;;;;18.90;7.03;;;12.30;99.90;;;;;;4966956;28;20513;-55
2023/07/04 03:35:03;;;;;;;19.75;6.93;;;12.30;99.90;;;;;;4967840;28;20129;-56
2023/07/04 03:37:30;;;;;;;17.65;6.65;;;12.40;99.90;;;;;;4966909;28;20035;-54
2023/07/04 03:39:57;;;;;;;21.35;7.03;;;12.40;99.90;;;;;;4965603;28;20081;-50
2023/07/04 03:42:24;;;;;;;14.80;6.50;;;12.80;99.90;;;;;;4958883;28;20047;-58
2023/07/04 03:44:49;;;;;;;12.23;5.78;;;12.40;99.90;;;;;;4963517;28;20046;-58
2023/07/04 03:47:15;;;;;;;16.73;6.40;;;12.50;99.90;;;;;;4954941;28;20047;-55
2023/07/04 03:49:41;;;;;;;11.70;5.72;;;12.50;99.90;;;;;;4945463;28;20074;-58
2023/07/04 03:52:07;;;;;;;14.60;5.65;;;12.60;99.90;;;;;;4945250;28;20039;-56
2023/07/04 03:54:33;;;;;;;14.73;5.30;;;12.60;99.90;;;;;;4944483;28;20414;-56
2023/07/04 03:56:58;;;;;;;14.27;5.30;;;12.60;99.90;;;;;;4944803;28;20043;-58
2023/07/04 03:59:24;;;;;;;13.45;5.60;;;12.60;99.90;;;;;;4945004;28;20044;-58
2023/07/04 04:01:50;;;;;;;9.90;4.30;;;12.60;99.90;;;;;;4944860;28;20047;-58
2023/07/04 04:04:15;;;;;;;13.07;4.18;;;12.70;99.90;;;;;;4943685;28;20043;-58
2023/07/04 04:06:41;;;;;;;7.38;3.50;;;12.70;99.90;;;;;;4945027;28;20510;-58
2023/07/04 04:09:06;;;;;;;13.13;4.15;;;12.80;99.90;;;;;;4944646;28;20450;-52
2023/07/04 04:11:51;;;;;;;15.80;4.43;;;12.70;99.90;;;;;;4944244;29;20761;-57
2023/07/04 04:14:36;;;;;;;10.00;3.50;;;12.70;99.90;;;;;;4944957;29;20050;-53
2023/07/04 04:17:03;;;;;;;10.68;3.50;;;12.70;99.90;;;;;;4942986;28;20098;-51
2023/07/04 04:19:28;;;;;;;10.00;3.40;;;12.80;99.90;;;;;;4944490;28;20183;-54
2023/07/04 04:21:55;;;;;;;10.65;3.65;;;12.80;99.90;;;;;;4944457;28;20681;-53
2023/07/04 04:24:22;;;;;;;10.20;3.97;;;13.00;99.90;;;;;;4943928;28;20493;-56
2023/07/04 04:26:48;;;;;;;11.05;3.92;;;12.90;99.90;;;;;;4943880;28;20089;-55
2023/07/04 04:29:22;;;;;;;9.43;3.88;;;12.90;99.90;;;;;;4944590;28;20067;-56
2023/07/04 04:31:48;;;;;;;12.35;3.97;;;12.90;99.90;;;;;;4944131;28;20059;-54
2023/07/04 04:34:16;;;;;;;9.35;3.47;;;12.90;99.90;;;;;;4943923;28;20053;-54
2023/07/04 04:36:42;;;;;;;9.25;3.45;;;12.90;99.90;;;;;;4944319;28;20043;-56
2023/07/04 04:39:08;;;;;;;10.10;3.70;;;13.10;99.90;;;;;;4944009;28;20054;-55
2023/07/04 04:41:33;;;;;;;9.07;3.53;;;12.90;99.90;;;;;;4942860;28;20039;-56
2023/07/04 04:44:04;;;;;;;12.15;3.75;;;13.00;99.90;;;;;;4944156;28;20453;-57
2023/07/04 04:46:31;;;;;;;12.60;4.30;;;12.90;99.90;;;;;;4943941;28;20047;-57
2023/07/04 04:48:58;;;;;;;11.93;4.38;;;13.10;99.90;;;;;;4942975;28;20043;-57
2023/07/04 04:51:24;;;;;;;9.45;4.53;;;13.00;99.90;;;;;;4944100;28;20162;-57
2023/07/04 04:53:50;;;;;;;11.55;4.88;;;13.00;99.90;;;;;;4943971;28;20047;-54
2023/07/04 04:56:15;;;;;;;13.63;5.15;;;13.20;99.90;;;;;;4943612;28;20098;-55
2023/07/04 04:58:44;;;;;;;10.38;4.10;;;13.40;99.90;;;;;;4943407;28;20487;-55
2023/07/04 05:01:16;;;;;;;13.18;4.45;;;13.50;99.90;;;;;;4962385;28;20039;-54
2023/07/04 05:03:44;;;;;;;10.00;4.07;;;13.60;99.90;;;;;;4962788;28;20043;-57
2023/07/04 05:06:10;;;;;;;10.23;4.40;;;13.50;99.90;;;;;;4960334;28;20061;-53
2023/07/04 05:08:36;;;;;;;10.73;4.88;;;13.50;99.90;;;;;;4961638;28;20043;-56
2023/07/04 05:11:06;;;;;;;11.13;4.32;;;13.40;99.90;;;;;;4962223;28;20070;-54
2023/07/04 05:13:37;;;;;;;12.70;4.93;;;13.40;99.90;;;;;;4962212;28;20098;-55
2023/07/04 05:16:05;;;;;;;9.07;4.15;;;13.30;99.90;;;;;;4962514;28;20101;-56
2023/07/04 05:18:32;;;;;;;11.88;4.68;;;13.30;99.90;;;;;;4962525;28;20047;-57
2023/07/04 05:21:12;;;;;;;11.90;4.85;;;13.40;99.90;;;;;;4961794;28;20058;-56
2023/07/04 05:23:40;;;;;;;11.35;5.00;;;13.60;99.90;;;;;;4962546;28;20034;-58
2023/07/04 05:26:16;;;;;;;12.60;5.20;;;13.40;99.90;;;;;;4961705;28;20401;-58
2023/07/04 05:28:43;;;;;;;11.48;4.60;;;13.40;99.90;;;;;;4961978;28;20421;-58
2023/07/04 05:31:14;;;;;;;11.48;5.28;;;13.40;99.90;;;;;;4960976;28;20039;-58
2023/07/04 05:33:40;;;;;;;13.30;5.20;;;13.40;99.90;;;;;;4961696;28;20055;-56
2023/07/04 05:36:13;;;;;;;13.10;4.85;;;13.40;99.90;;;;;;4962184;28;20397;-52
2023/07/04 05:38:39;;;;;;;10.70;5.10;;;13.40;99.90;;;;;;4962247;28;20042;-56
2023/07/04 05:41:13;;;;;;;9.52;4.78;;;13.40;99.90;;;;;;4960983;28;20525;-58
2023/07/04 05:43:40;;;;;;;12.57;4.78;;;13.70;99.90;;;;;;4962055;28;20093;-53
2023/07/04 05:46:07;;;;;;;12.60;4.60;;;13.50;99.90;;;;;;4944786;28;20564;-54
2023/07/04 05:48:34;;;;;;;10.32;4.70;;;13.60;99.90;;;;;;4961723;28;20260;-55
2023/07/04 05:51:03;;;;;;;11.95;5.32;;;13.60;99.90;;;;;;4961896;28;20192;-58
2023/07/04 05:53:35;;;;;;;12.18;4.15;;;14.00;99.90;;;;;;4961829;28;20080;-55
2023/07/04 05:56:07;;;;;;;12.27;4.32;;;13.80;99.90;;;;;;4960565;28;20043;-54
2023/07/04 05:58:33;;;;;;;11.07;4.20;;;14.00;99.90;;;;;;4962029;28;20299;-57
2023/07/04 06:01:10;;;;;;;12.20;4.65;;;14.00;99.90;;;;;;4962007;28;20411;-57
2023/07/04 06:03:36;;;;;;;9.10;4.20;;;14.00;99.90;;;;;;4961181;28;20047;-53
2023/07/04 06:06:38;;;;;;;13.20;4.35;;;14.10;99.90;;;;;;4961102;28;20667;-51
2023/07/04 06:09:10;;;;;;;9.73;4.28;;;14.10;99.90;;;;;;4949834;28;20059;-58
2023/07/04 06:11:39;;;;;;;11.90;4.38;;;14.20;99.90;;;;;;4962366;28;20057;-55
2023/07/04 06:14:06;;;;;;;10.35;4.05;;;14.20;99.90;;;;;;4961383;28;20099;-53
2023/07/04 06:16:34;;;;;;;9.13;3.70;;;14.40;99.90;;;;;;4961971;28;20536;-54
2023/07/04 06:18:59;;;;;;;14.23;4.18;;;14.30;99.90;;;;;;4962221;28;20054;-58
2023/07/04 06:21:25;;;;;;;9.88;4.03;;;14.30;99.90;;;;;;4958297;28;20039;-55
2023/07/04 06:23:56;;;;;;;7.63;3.50;;;14.30;99.90;;;;;;4953033;28;20059;-59
2023/07/04 06:26:22;;;;;;;10.18;4.03;;;14.40;99.90;;;;;;4947084;28;20114;-57
2023/07/04 06:28:50;;;;;;;7.90;2.92;;;14.30;99.90;;;;;;4948573;28;20050;-58
2023/07/04 06:31:17;;;;;;;7.72;3.10;;;14.40;99.90;;;;;;4941798;28;20053;-56
2023/07/04 06:33:43;;;;;;;8.05;2.90;;;14.50;99.90;;;;;;4942631;28;20146;-56
2023/07/04 06:36:10;;;;;;;8.38;4.05;;;14.70;99.90;;;;;;4942502;28;20047;-56
2023/07/04 06:38:36;;;;;;;12.50;2.40;;;14.70;99.90;;;;;;4941675;28;20130;-55
2023/07/04 06:41:03;;;;;;;7.85;2.50;;;14.80;99.90;;;;;;4943475;28;20130;-56
2023/07/04 06:43:31;;;;;;;6.43;2.00;;;14.90;99.90;;;;;;4945870;28;20287;-58
2023/07/04 06:45:57;;;;;;;7.38;2.10;;;15.20;99.90;;;;;;4945207;28;20494;-60
2023/07/04 06:48:23;;;;;;;7.50;2.42;;;15.00;99.90;;;;;;4946592;28;20054;-58
2023/07/04 06:51:00;;;;;;;8.23;2.10;;;14.90;99.90;;;;;;4946609;28;20043;-60
2023/07/04 06:53:27;;;;;;;5.82;1.63;;;14.70;99.90;;;;;;4939021;28;20094;-58
2023/07/04 06:55:53;;;;;;;5.85;1.60;;;14.90;99.90;;;;;;4952251;28;20211;-59
2023/07/04 06:58:19;;;;;;;7.57;2.00;;;15.00;99.90;;;;;;4946500;28;20542;-53
2023/07/04 07:00:45;;;;;;;6.95;2.03;;;15.10;99.90;;;;;;4944341;28;20369;-59
2023/07/04 07:03:11;;;;;;;4.30;1.50;;;15.30;99.90;;;;;;4945111;28;20541;-58
2023/07/04 07:05:43;;;;;;;5.75;1.83;;;15.40;99.90;;;;;;4945490;28;20067;-60
2023/07/04 07:08:10;;;;;;;8.20;1.92;;;15.40;99.90;;;;;;4945804;28;20406;-58
2023/07/04 07:10:36;;;;;;;6.88;2.20;;;15.30;99.90;;;;;;4944832;28;20410;-56
2023/07/04 07:13:06;;;;;;;6.03;1.85;;;15.40;99.90;;;;;;4946265;28;20078;-56
2023/07/04 07:15:31;;;;;;;6.20;1.70;;;15.40;99.90;;;;;;4945426;28;20047;-59
2023/07/04 07:17:57;;;;;;;5.43;1.73;;;15.50;99.90;;;;;;4945181;28;20046;-60
2023/07/04 07:20:23;;;;;;;6.53;1.70;;;15.50;99.90;;;;;;4945884;28;20106;-58
2023/07/04 07:22:48;;;;;;;3.72;1.40;;;15.90;99.90;;;;;;4946744;28;20682;-60
2023/07/04 07:25:14;;;;;;;7.43;1.63;;;15.70;99.90;;;;;;4963796;28;20055;-58
2023/07/04 07:27:40;;;;;;;8.88;1.67;;;15.90;99.90;;;;;;4964240;28;20051;-60
2023/07/04 07:30:06;;;;;;;6.22;1.85;;;15.90;99.90;;;;;;4964751;28;20074;-59
2023/07/04 07:32:31;;;;;;;4.55;1.70;;;15.80;99.90;;;;;;4963100;28;20058;-61
2023/07/04 07:34:57;;;;;;;6.72;1.90;;;15.80;99.90;;;;;;4962749;28;20508;-61
2023/07/04 07:37:23;;;;;;;7.22;1.88;;;15.80;99.90;;;;;;4964813;28;20102;-57
2023/07/04 07:39:51;;;;;;;5.10;1.60;;;15.80;99.90;;;;;;4963983;28;20458;-62
2023/07/04 07:42:16;;;;;;;6.80;1.70;;;16.00;99.90;;;;;;4960659;28;20106;-59
2023/07/04 07:44:42;;;;;;;7.80;1.70;;;16.10;99.90;;;;;;4948274;28;20035;-58
2023/07/04 07:47:10;;;;;;;9.07;1.63;;;16.00;99.90;;;;;;4950259;28;20532;-58
2023/07/04 07:49:36;;;;;;;7.05;1.95;;;16.00;99.90;;;;;;4954912;28;20098;-56
2023/07/04 07:52:02;;;;;;;5.35;1.65;;;15.90;99.90;;;;;;4944131;28;20082;-54
2023/07/04 07:54:28;;;;;;;4.85;1.50;;;16.00;99.90;;;;;;4944461;28;20082;-52
2023/07/04 07:56:53;;;;;;;6.80;1.80;;;16.10;99.90;;;;;;4956595;28;20062;-52
2023/07/04 07:59:20;;;;;;;7.38;1.80;;;16.10;99.90;;;;;;4963882;28;20046;-58
2023/07/04 08:01:47;;;;;;;5.75;1.60;;;16.20;99.90;;;;;;4963911;28;20062;-58
2023/07/04 08:04:13;;;;;;;6.70;1.60;;;16.30;99.90;;;;;;4963593;28;20375;-54
2023/07/04 08:06:44;;;;;;;9.32;1.83;;;16.40;99.90;;;;;;4963304;28;20078;-51
2023/07/04 08:09:13;;;;;;;5.32;1.77;;;16.40;99.90;;;;;;4962386;28;20556;-56
2023/07/04 08:11:39;;;;;;;24.25;3.30;;;16.40;99.90;;;;;;4953819;28;20065;-54
2023/07/04 08:14:06;;;;;;;9.93;2.25;;;16.40;99.90;;;;;;4956088;28;20035;-55
2023/07/04 08:16:43;;;;;;;8.82;1.70;;;16.40;99.90;;;;;;4956646;28;20046;-55
2023/07/04 08:19:09;;;;;;;7.20;2.00;;;16.40;99.90;;;;;;4953671;28;20168;-59
2023/07/04 08:21:35;;;;;;;5.00;1.77;;;16.40;99.90;;;;;;4954571;28;20423;-59
2023/07/04 08:24:01;;;;;;;4.45;1.58;;;16.50;99.90;;;;;;4950614;28;20047;-53
2023/07/04 08:26:27;;;;;;;6.45;1.60;;;16.40;99.90;;;;;;4948885;28;20078;-52
2023/07/04 08:28:54;;;;;;;6.80;1.83;;;16.50;99.90;;;;;;4944212;28;20236;-56
2023/07/04 08:31:20;;;;;;;6.93;2.00;;;16.50;99.90;;;;;;4958626;28;20042;-58
2023/07/04 08:33:47;;;;;;;7.47;1.88;;;16.60;99.90;;;;;;4963327;28;20043;-48
2023/07/04 08:36:14;;;;;;;7.57;2.35;;;16.70;99.90;;;;;;4962637;28;20198;-52
2023/07/04 08:38:41;;;;;;;5.65;1.38;;;16.80;99.90;;;;;;4962576;28;20176;-59
2023/07/04 08:41:35;;;;;;;4.38;1.20;;;16.70;99.90;;;;;;4962735;28;20050;-58
2023/07/04 08:44:06;;;;;;;5.10;1.70;;;16.70;99.90;;;;;;4956407;28;20449;-57
2023/07/04 08:46:54;;;;;;;4.70;1.48;;;16.60;99.90;;;;;;4954813;28;20046;-53
2023/07/04 08:49:52;;;;;;;7.72;1.40;;;16.60;99.90;;;;;;4963113;28;20125;-58
2023/07/04 08:52:30;;;;;;;5.40;1.50;;;16.60;99.90;;;;;;4933927;29;20109;-52
2023/07/04 08:54:56;;;;;;;5.95;1.77;;;16.60;99.90;;;;;;4942673;28;20031;-52
2023/07/04 08:58:01;;;;;;;7.32;2.33;;;16.70;99.90;;;;;;4944100;28;20617;-55
2023/07/04 09:00:39;;;;;;;5.32;1.67;;;16.80;99.90;;;;;;4944505;28;20047;-53
2023/07/04 09:03:17;;;;;;;6.15;1.52;;;16.80;99.90;;;;;;4943144;28;20058;-56
2023/07/04 09:06:17;;;;;;;8.68;1.80;;;16.80;99.90;;;;;;4943472;28;20062;-50
2023/07/04 09:09:19;;;;;;;6.60;1.80;;;16.80;99.90;;;;;;4942323;28;20134;-53
2023/07/04 09:11:48;;;;;;;5.78;1.60;;;16.90;99.90;;;;;;4943940;28;20047;-59
2023/07/04 09:14:36;;;;;;;5.38;1.42;;;17.10;99.90;;;;;;4943411;28;20114;-53
2023/07/04 09:17:07;;;;;;;7.88;1.70;;;17.30;99.90;;;;;;4944070;28;20552;-51
2023/07/04 09:19:39;;;;;;;6.15;1.63;;;17.40;99.90;;;;;;4951121;28;20043;-53
2023/07/04 09:22:06;;;;;;;7.00;1.55;;;17.50;99.90;;;;;;4962107;28;20186;-55
2023/07/04 09:24:32;;;;;;;6.97;2.03;;;17.60;99.90;;;;;;4953544;28;20681;-53
2023/07/04 09:26:59;;;;;;;5.38;1.75;;;17.70;99.90;;;;;;4958286;28;20038;-52
2023/07/04 09:29:25;;;;;;;6.18;1.38;;;17.60;99.90;;;;;;4962997;28;20053;-58
2023/07/04 09:31:57;;;;;;;6.80;1.88;;;17.60;99.90;;;;;;4963018;28;20046;-57
2023/07/04 09:34:35;;;;;;;7.63;1.60;;;17.80;99.90;;;;;;4962296;28;20047;-58
2023/07/04 09:37:10;;;;;;;7.68;1.65;;;17.90;99.90;;;;;;4962013;28;20468;-59
2023/07/04 09:39:56;;;;;;;5.68;1.63;;;17.90;99.90;;;;;;4961532;28;20362;-53
2023/07/04 09:42:42;;;;;;;7.53;1.67;;;18.10;99.90;;;;;;4962619;28;20129;-58
2023/07/04 09:45:13;;;;;;;7.32;1.60;;;18.30;99.90;;;;;;4962387;28;20042;-55
2023/07/04 09:47:44;;;;;;;6.13;1.83;;;18.50;99.90;;;;;;4958915;28;20043;-59
2023/07/04 09:50:31;;;;;;;6.68;1.75;;;18.50;98.50;;;;;;4955796;28;20105;-55
2023/07/04 09:53:11;;;;;;;8.80;2.03;;;18.50;97.60;;;;;;4943712;28;20321;-56
2023/07/04 09:55:40;;;;;;;5.50;1.63;;;18.50;97.80;;;;;;4955484;28;20046;-56
2023/07/04 09:58:26;;;;;;;8.48;1.85;;;18.50;97.50;;;;;;4959298;28;20496;-53
2023/07/04 10:01:14;;;;;;;6.90;2.00;;;18.50;95.80;;;;;;4958580;28;20154;-55
2023/07/04 10:03:42;;;;;;;6.18;1.63;;;18.80;95.50;;;;;;4960379;28;20256;-54
2023/07/04 10:06:09;;;;;;;6.40;1.60;;;18.90;95.10;;;;;;4960641;28;20058;-56
2023/07/04 10:08:55;;;;;;;7.85;1.85;;;18.80;95.20;;;;;;4961642;28;20869;-52
2023/07/04 10:11:32;;;;;;;9.38;2.50;;;18.90;95.80;;;;;;4962289;28;20874;-57
2023/07/04 10:14:07;;;;;;;9.50;2.00;;;19.10;96.00;;;;;;4961883;28;20316;-60
2023/07/04 10:16:34;;;;;;;6.60;1.85;;;19.30;95.40;;;;;;4966702;28;20046;-53
2023/07/04 10:19:12;;;;;;;10.68;2.05;;;19.40;94.20;;;;;;4964767;28;20047;-58
2023/07/04 10:21:41;;;;;;;10.00;1.60;;;19.30;94.20;;;;;;4966502;28;20200;-58
2023/07/04 10:24:13;;;;;;;5.78;1.30;;;19.20;93.40;;;;;;4964770;28;20398;-53
2023/07/04 10:26:39;;;;;;;5.45;1.50;;;19.30;94.40;;;;;;4965964;28;20066;-59
2023/07/04 10:29:05;;;;;;;7.72;1.88;;;19.30;94.40;;;;;;4966416;28;20039;-49
2023/07/04 10:31:31;;;;;;;6.95;1.90;;;19.50;93.50;;;;;;4965013;28;20066;-63
2023/07/04 10:34:04;;;;;;;6.70;1.45;;;19.60;93.60;;;;;;4946588;28;20078;-57
2023/07/04 10:36:34;;;;;;;9.30;1.65;;;19.80;93.80;;;;;;4946665;28;20031;-60
2023/07/04 10:39:06;;;;;;;7.95;1.77;;;19.80;93.40;;;;;;4957298;28;20081;-51
2023/07/04 10:41:40;;;;;;;6.95;1.50;;;19.90;92.60;;;;;;4948819;28;20130;-60
2023/07/04 10:44:12;;;;;;;7.28;1.88;;;20.00;93.10;;;;;;4948856;28;20150;-62
2023/07/04 10:46:53;;;;;;;8.10;1.63;;;20.20;93.40;;;;;;4947217;28;20043;-55
2023/07/04 10:49:25;;;;;;;4.85;1.17;;;20.50;92.80;;;;;;4965961;28;20101;-53
2023/07/04 10:52:14;;;;;;;6.97;1.73;;;20.70;91.60;;;;;;4958571;28;20038;-54
2023/07/04 10:54:39;;;;;;;9.57;1.60;;;20.70;91.70;;;;;;4960822;28;20404;-58
2023/07/04 10:57:12;;;;;;;7.28;1.73;;;20.50;91.70;;;;;;4967200;28;20030;-60
2023/07/04 10:59:42;;;;;;;8.38;1.83;;;20.40;91.80;;;;;;4968031;28;20228;-58
2023/07/04 11:02:22;;;;;;;5.35;1.92;;;20.30;92.00;;;;;;4967715;28;20042;-54
2023/07/04 11:04:50;;;;;;;6.80;1.90;;;20.40;92.00;;;;;;4966992;28;20055;-57
2023/07/04 11:07:21;;;;;;;7.28;1.70;;;20.50;91.80;;;;;;4966495;28;20050;-63
2023/07/04 11:09:51;;;;;;;8.18;2.00;;;20.40;92.30;;;;;;4964676;28;20354;-62
2023/07/04 11:12:21;;;;;;;4.90;1.30;;;20.30;92.20;;;;;;4965659;28;20047;-56
2023/07/04 11:14:48;;;;;;;5.65;1.48;;;20.30;92.60;;;;;;4965572;28;20054;-62
2023/07/04 11:17:17;;;;;;;5.47;1.63;;;20.60;91.20;;;;;;4966790;28;20064;-59
2023/07/04 11:20:15;;;;;;;8.15;1.95;;;20.80;90.70;;;;;;4966139;28;20053;-52
2023/07/04 11:22:50;;;;;;;4.28;1.23;;;20.90;89.90;;;;;;4959507;28;20616;-58
2023/07/04 11:25:41;;;;;;;6.30;2.17;;;21.00;90.50;;;;;;4957708;28;20127;-57
2023/07/04 11:28:16;;;;;;;8.02;1.80;;;21.10;90.00;;;;;;4956538;28;20042;-59
2023/07/04 11:30:45;;;;;;;11.63;1.48;;;21.00;90.50;;;;;;4965864;28;20728;-60
2023/07/04 11:33:30;;;;;;;9.27;1.67;;;21.00;90.30;;;;;;4966961;28;20136;-58
2023/07/04 11:35:56;;;;;;;6.43;1.50;;;21.00;90.00;;;;;;4965234;28;20086;-64
2023/07/04 11:38:22;;;;;;;4.80;1.17;;;21.10;90.00;;;;;;4966597;28;20510;-70
2023/07/04 11:40:55;;;;;;;7.10;1.73;;;21.40;90.70;;;;;;4963754;28;20165;-51
2023/07/04 11:43:40;;;;;;;8.90;2.15;;;21.50;89.50;;;;;;4966233;28;20039;-53
2023/07/04 11:46:07;;;;;;;7.65;1.77;;;21.60;90.00;;;;;;4966967;28;20126;-62
2023/07/04 11:48:35;;;;;;;6.72;1.90;;;21.50;90.10;;;;;;4966747;28;20054;-57
2023/07/04 11:51:05;;;;;;;11.15;1.90;;;21.40;90.00;;;;;;4966097;28;20051;-57
2023/07/04 11:53:38;;;;;;;8.70;1.83;;;21.30;90.00;;;;;;4965306;28;20299;-57
2023/07/04 11:56:13;;;;;;;5.95;1.60;;;21.40;90.50;;;;;;4965156;28;20058;-56
2023/07/04 11:58:39;;;;;;;8.40;2.00;;;21.50;90.00;;;;;;4966298;28;20062;-53
2023/07/04 12:01:05;;;;;;;5.10;1.77;;;21.60;90.10;;;;;;4966289;28;20047;-54
2023/07/04 12:03:52;;;;;;;5.75;1.75;;;21.60;89.20;;;;;;4967859;28;20568;-61
2023/07/04 12:06:45;;;;;;;6.43;1.73;;;21.70;89.50;;;;;;4966161;28;20457;-62
2023/07/04 12:09:14;;;;;;;7.18;1.80;;;21.70;88.40;;;;;;4966675;28;20050;-62
2023/07/04 12:11:44;;;;;;;6.32;1.65;;;21.60;88.50;;;;;;4967079;28;20051;-60
2023/07/04 12:14:15;;;;;;;9.90;1.77;;;21.60;90.00;;;;;;4962387;28;20050;-51
2023/07/04 12:16:44;;;;;;;8.10;1.88;;;21.70;90.40;;;;;;4965530;28;20741;-62
2023/07/04 12:19:17;;;;;;;3.97;1.05;;;21.90;90.40;;;;;;4965054;28;20441;-53
2023/07/04 12:21:46;;;;;;;7.82;1.90;;;21.90;87.30;;;;;;4965187;28;20088;-59
2023/07/04 12:24:17;;;;;;;6.57;1.75;;;22.00;85.00;;;;;;4963783;28;20053;-58
2023/07/04 12:26:43;;;;;;;7.82;1.55;;;21.80;84.60;;;;;;4946112;28;20106;-63
2023/07/04 12:29:09;;;;;;;5.78;1.63;;;21.90;85.80;;;;;;4963977;28;20445;-55
2023/07/04 12:31:34;;;;;;;7.05;1.77;;;22.00;85.40;;;;;;4963827;28;20050;-61
2023/07/04 12:34:00;;;;;;;6.53;2.28;;;21.90;85.60;;;;;;4963889;28;20416;-53
2023/07/04 12:36:33;;;;;;;5.93;1.60;;;21.80;85.90;;;;;;4963188;28;20035;-54
2023/07/04 12:39:01;;;;;;;7.93;1.70;;;21.60;85.50;;;;;;4962282;28;20413;-56
2023/07/04 12:41:30;;;;;;;7.72;1.85;;;21.30;86.40;;;;;;4963682;28;20067;-52
2023/07/04 12:44:02;;;;;;;9.68;2.40;;;21.00;87.90;;;;;;4963263;28;20074;-54
2023/07/04 12:46:30;;;;;;;8.43;2.08;;;20.80;89.30;;;;;;4962417;28;20047;-54
2023/07/04 12:48:57;;;;;;;8.25;2.08;;;20.80;90.10;;;;;;4946381;28;20055;-60
2023/07/04 12:51:26;;;;;;;6.03;1.65;;;21.10;89.60;;;;;;4952683;28;20050;-58
2023/07/04 12:53:53;;;;;;;7.18;1.92;;;21.10;88.40;;;;;;4949805;28;20043;-52
2023/07/04 12:56:20;;;;;;;6.75;1.88;;;21.00;89.60;;;;;;4943955;28;20043;-56